Pierson, MI (49339)

3:06 PM EDT on August 29, 2014 (GMT -0400)
Ensley Center - Snow Farm | Change Station
CLOSE
Current Station
Personal Weather Station
Location: Howard City, MI
Elevation: 982 ft
Nearby Weather Stations

Elev 982 ft 43.36 °N, 85.62 °W | Updated 3 minutes ago

Overcast
Overcast
66.9 °F
Feels Like 66.9 °F
N
6.3
Wind Variable Wind from SSE

Today
High -- | Low -- °F
--% Chance of Precip.
Yesterday
High -- | Low -- °F
Precip. -- in
7:02 AM 8:22 PM
Waxing Crescent, 16% visible
Pressure 30.00 in
Visibility 10.0 miles
Clouds Scattered Clouds 6000 ft
Scattered Clouds 7500 ft
Mostly Cloudy 10000 ft
Dew Point 62 °F
Humidity 84%
Rainfall 0.00 in
Snow Depth Not available.
UV 4 out of 12
Pollen 7.10 out of 12
Ozone Good
Flu Activity Not available.
METAR KFFX 291852Z AUTO 12005KT 10SM -RA SCT060 SCT075 BKN100 19/18 A3000 RMK AO2 T01860180

More Conditions Fewer Conditions

Pressure 30.00 in
Visibility 10.0 miles
Clouds Scattered Clouds 6000 ft
Scattered Clouds 7500 ft
Mostly Cloudy 10000 ft
Dew Point 62 °F
Humidity 84%
Rainfall 0.00 in
Snow Depth Not available.
UV 4 out of 12
Pollen 7.10 out of 12
Ozone Good
Flu Activity Not available.
METAR KFFX 291852Z AUTO 12005KT 10SM -RA SCT060 SCT075 BKN100 19/18 A3000 RMK AO2 T01860180

More Conditions Fewer Conditions

10-Day Weather Forecast

Almanac

Astronomy

Aug. 29, 2014 Rise Set
Actual Time 7:02 AM EDT 8:22 PM EDT
Civil Twilight 6:33 AM EDT 8:51 PM EDT
Nautical Twilight 5:57 AM EDT 9:27 PM EDT
Astronomical Twilight 5:19 AM EDT 10:04 PM EDT
Moon 10:59 AM EDT 10:11 PM EDT
Length of Visible Light 14h 18m
Length of Day
13h 19m
Tomorrow will be 2m 50s shorter.
Waxing Crescent, 16% of the Moon is Illuminated
Today
Waxing Crescent
Sep 2
First Quarter
Sep 8
Full
Sep 15
Last Quarter
Sep 24
New

Today's Extremes

State Highs State Lows

Community

WunderPhotos

Upload Photos

1,748,314 photos uploaded!

Nearby

Air Quality

  Air Quality AQ Index Pollutant
Yesterday Good
OZONE
Current Good
OZONE
Friday Good
OZONE
Friday Good
PM2.5
Saturday Moderate
PM2.5
Saturday Good
OZONE
Sunday Good
OZONE
Sunday Good
PM2.5
Monday Good
OZONE
Monday Good
PM2.5
Tuesday Good
OZONE
Tuesday Good
PM2.5

Snow Depth

Station Depth Elevation
No new snow has been reported.

Earthquake Activity

City Distance Mag. Time & Date
No recent earthquake activity has been reported nearby.
Minimum magnitude displayed is 2.5.

Coastal Water Temperatures

Place Temperature
No Stations Reporting

Nearby Weather Stations